Ridley Park, Pennsylvania
Current Conditions -  °F | °C
As of 6:54 PM on Saturday 20 Dec 2014 (Local Time) from KPHL Reporting Station
Overcast Overcast  
Wind Chill: 31°   Ceiling: 3200
Heat Index: 35°   Visibility: 10mi
Dew Point: 21°   Wind: 5mph
Humidity: 57%   Direction: 350°N
Pressure: 30.3"   Gusts: NA
Location:  39.88°N, 75.32°W
Report Text: KPHL 202354Z 35004KT 10SM OVC032 02/M06 A3030 RMK AO2 SLP261 T00171061 10017 20011 51009
Loading
Personal Weather Stations






























Interactive Weather Map New forecast layout! Learn more

10-Day Weather Forecast

Advertisements
Track Severe Weather on mobile